Acme, Wyoming
Current Conditions -  °F | °C
As of 2:53 PM on Tuesday 21 Oct 2014 (Local Time) from KSHR Reporting Station
Clear Clear  
Wind Chill: 77°   Ceiling: Unl
Heat Index: 77°   Visibility: 10mi
Dew Point: 33°   Wind: 18mph
Humidity: 20%   Direction: 240°WSW
Pressure: 29.67"   Gusts: 24mph
Location:  44.8885°N, 107.104°W
Report Text: KSHR 212053Z AUTO 24016G21KT 10SM CLR 25/01 A2967 RMK AO2 SLP022 T02500006 56016 TSNO
Loading
Personal Weather Stations






























Interactive Weather Map New forecast layout! Learn more

10-Day Weather Forecast

Advertisements
Track Severe Weather on mobile